createdAt,value
2022-07-30T00:00:24.998Z,4.03
2022-07-30T00:05:27.827Z,4.00
2022-07-30T00:10:30.189Z,3.70
2022-07-30T00:15:32.514Z,4.05
2022-07-30T00:20:34.859Z,4.50
2022-07-30T00:25:37.558Z,4.43
2022-07-30T00:30:40.681Z,4.88
2022-07-30T00:35:45.624Z,4.43
2022-07-30T00:40:49.253Z,4.28
2022-07-30T00:45:54.421Z,4.50
2022-07-30T00:50:56.706Z,5.38
2022-07-30T00:55:59.521Z,4.68
2022-07-30T01:01:01.783Z,5.00
2022-07-30T01:06:04.562Z,5.20
2022-07-30T01:11:07.005Z,5.15
2022-07-30T01:16:10.565Z,5.05
2022-07-30T01:21:16.042Z,4.88
2022-07-30T01:26:19.652Z,4.65
2022-07-30T01:31:23.637Z,5.18
2022-07-30T01:36:27.312Z,5.63
2022-07-30T01:41:30.573Z,4.97
2022-07-30T01:46:33.767Z,5.45
2022-07-30T01:51:37.890Z,4.50
2022-07-30T01:56:41.144Z,4.82
2022-07-30T02:01:43.588Z,4.85
2022-07-30T02:06:48.706Z,5.40
2022-07-30T02:12:11.419Z,5.22
2022-07-30T02:17:26.599Z,5.45
2022-07-30T02:22:34.689Z,5.20
2022-07-30T02:27:38.994Z,5.22
2022-07-30T02:32:42.546Z,5.63
2022-07-30T02:37:47.434Z,5.85
2022-07-30T02:42:52.133Z,5.60
2022-07-30T02:48:07.894Z,5.82
2022-07-30T02:53:14.144Z,5.57
2022-07-30T02:58:20.515Z,6.10
2022-07-30T03:03:28.929Z,6.20
2022-07-30T03:08:32.150Z,6.32
2022-07-30T03:13:34.471Z,6.15
2022-07-30T03:18:39.179Z,6.93
2022-07-30T03:23:42.480Z,6.82
2022-07-30T03:28:46.259Z,6.27
2022-07-30T03:33:48.968Z,6.55
2022-07-30T03:38:51.284Z,6.40
2022-07-30T03:43:54.271Z,6.00
2022-07-30T03:48:57.299Z,7.50
2022-07-30T03:54:01.193Z,6.97
2022-07-30T03:59:25.078Z,6.93
2022-07-30T04:04:27.572Z,6.40
2022-07-30T04:09:31.221Z,6.53
2022-07-30T04:14:44.471Z,7.97
2022-07-30T04:19:50.721Z,7.40
2022-07-30T04:24:53.912Z,7.32
2022-07-30T04:29:56.564Z,7.35
2022-07-30T04:34:59.055Z,7.90
2022-07-30T04:40:25.022Z,7.78
2022-07-30T04:45:27.564Z,7.85
2022-07-30T04:50:34.241Z,7.28
2022-07-30T04:55:41.079Z,7.93
2022-07-30T05:00:44.333Z,8.05
2022-07-30T05:05:54.080Z,8.18
2022-07-30T05:11:00.132Z,9.13
2022-07-30T05:16:03.017Z,9.80
2022-07-30T05:21:05.531Z,10.13
2022-07-30T05:26:11.729Z,9.55
2022-07-30T05:31:21.361Z,9.95
2022-07-30T05:36:32.261Z,10.73
2022-07-30T05:41:35.637Z,11.10
2022-07-30T05:46:55.490Z,11.43
2022-07-30T05:51:58.593Z,13.23
2022-07-30T05:57:01.837Z,12.85
2022-07-30T06:02:09.782Z,13.48
2022-07-30T06:07:30.539Z,13.00
2022-07-30T06:12:35.071Z,14.10
2022-07-30T06:17:54.638Z,14.73
2022-07-30T06:23:18.219Z,15.05
2022-07-30T06:28:48.046Z,14.80
2022-07-30T06:33:55.263Z,16.83
2022-07-30T06:38:58.257Z,16.90
2022-07-30T06:44:14.427Z,18.48
2022-07-30T06:49:37.547Z,17.90
2022-07-30T06:54:41.500Z,20.90
2022-07-30T06:59:56.809Z,26.13
2022-07-30T07:05:08.392Z,29.25
2022-07-30T07:10:11.930Z,30.10
2022-07-30T07:15:22.329Z,35.13
2022-07-30T07:20:40.017Z,38.55
2022-07-30T07:25:44.553Z,41.67
2022-07-30T07:30:47.777Z,38.90
2022-07-30T07:35:50.796Z,41.50
2022-07-30T07:41:02.354Z,44.60
2022-07-30T07:46:06.887Z,44.72
2022-07-30T07:51:11.155Z,43.05
2022-07-30T07:56:14.139Z,42.22
2022-07-30T08:01:18.032Z,40.08
2022-07-30T08:06:39.110Z,41.17
2022-07-30T08:12:01.772Z,41.58
2022-07-30T08:17:45.845Z,38.25
2022-07-30T08:22:54.538Z,32.60
